Terminal Aerodrome Forecast
Issued by NWS Chicago, IL

Home | Current Version | Previous Version | Graphics & Text | Print | Product List | Glossary On
Versions: 1 2 3 4 5 6 7 8 9 10 11 12 13 14 15 16 17 18 19 20 21 22 23 24 25 26 27
622
FTUS43 KLOT 080528
TAFRFD
TAF
KRFD 080528Z 0806/0906 24006KT P6SM SKC
     FM081400 23010KT P6SM SCT060 BKN100
     FM090100 22007KT P6SM -SHSN OVC070=

USA.gov is the U.S. government's official web portal to all federal, state and local government web resources and services.